Time;durP1;ratioP1;P1;durP2;ratioP2;P2;SDS_P1;SDS_P2;PMS_P1;PMS_P2;Temp;Humidity;BMP_temperature;BMP_pressure;BME280_temperature;BME280_humidity;BME280_pressure;Samples;Min_cycle;Max_cycle;Signal;HPM_P1;HPM_P2
2023/12/03 00:01:52;;;;;;;12.70;7.27;;;-2.60;99.90;-3.10;100501.00;;;;4951818;28;88161;-63
2023/12/03 00:04:18;;;;;;;14.30;7.30;;;-2.60;99.90;-3.20;100514.00;;;;4949489;28;108820;-64
2023/12/03 00:06:44;;;;;;;10.80;6.87;;;-2.70;99.90;-3.30;100522.00;;;;4951418;28;117453;-64
2023/12/03 00:09:10;;;;;;;15.27;7.93;;;-3.30;99.90;-3.30;100514.00;;;;4952593;28;116045;-64
2023/12/03 00:11:36;;;;;;;10.20;7.50;;;-2.90;99.90;-3.40;100519.00;;;;4951367;28;109790;-63
2023/12/03 00:14:01;;;;;;;14.03;8.43;;;-2.90;99.90;-3.40;100524.00;;;;4949244;28;106491;-66
2023/12/03 00:16:33;;;;;;;12.43;8.07;;;-2.90;99.90;-3.40;100514.00;;;;4948079;28;116559;-64
2023/12/03 00:18:58;;;;;;;12.77;8.17;;;-2.80;99.90;-3.40;100527.00;;;;4950275;28;118567;-66
2023/12/03 00:21:24;;;;;;;14.37;7.80;;;-2.90;99.90;-3.50;100524.00;;;;4951029;28;110485;-65
2023/12/03 00:23:50;;;;;;;10.23;7.43;;;-3.00;99.90;-3.50;100526.00;;;;4946567;28;88480;-65
2023/12/03 00:26:16;;;;;;;12.50;7.73;;;-3.10;99.90;-3.50;100543.00;;;;4944197;28;116760;-64
2023/12/03 00:28:41;;;;;;;15.10;8.47;;;-3.00;99.90;-3.50;100540.00;;;;4953581;28;115906;-65
2023/12/03 00:31:07;;;;;;;14.87;9.63;;;-3.00;99.90;-3.50;100534.00;;;;4951015;28;110306;-63
2023/12/03 00:33:33;;;;;;;12.70;8.83;;;-3.00;99.90;-3.60;100544.00;;;;4953120;28;108153;-64
2023/12/03 00:35:59;;;;;;;14.97;8.23;;;-3.00;99.90;-3.60;100541.00;;;;4954795;28;117019;-63
2023/12/03 00:38:25;;;;;;;18.77;9.33;;;-3.00;99.90;-3.60;100551.00;;;;4953724;28;87936;-64
2023/12/03 00:40:51;;;;;;;11.53;7.97;;;-3.00;99.90;-3.60;100550.00;;;;4955810;28;88539;-63
2023/12/03 00:43:17;;;;;;;15.13;8.87;;;-3.10;99.90;-3.50;100552.00;;;;4951355;28;110005;-64
2023/12/03 00:45:42;;;;;;;14.27;8.90;;;-3.10;99.90;-3.50;100550.00;;;;4952269;28;118353;-66
2023/12/03 00:48:08;;;;;;;18.53;8.83;;;-3.00;99.90;-3.40;100538.00;;;;4952998;28;117503;-64
2023/12/03 00:50:34;;;;;;;12.60;9.00;;;-3.00;99.90;-3.30;100551.00;;;;4952382;28;109268;-65
2023/12/03 00:52:59;;;;;;;14.27;8.33;;;-2.90;99.90;-3.30;100564.00;;;;4953308;28;109957;-65
2023/12/03 00:55:25;;;;;;;14.30;9.00;;;-2.80;99.90;-3.20;100548.00;;;;4952422;28;115583;-65
2023/12/03 00:57:50;;;;;;;16.93;9.63;;;-2.80;99.90;-3.20;100554.00;;;;4953362;28;118163;-65
2023/12/03 01:00:17;;;;;;;15.10;8.73;;;-2.80;99.90;-3.10;100556.00;;;;4953416;28;110134;-65
2023/12/03 01:02:43;;;;;;;12.10;7.87;;;-2.60;99.90;-3.00;100555.00;;;;4951241;28;99117;-64
2023/12/03 01:05:08;;;;;;;17.27;10.03;;;-2.60;99.90;-3.00;100567.00;;;;4958788;28;117452;-64
2023/12/03 01:07:34;;;;;;;15.93;8.63;;;-2.50;99.90;-2.90;100573.00;;;;4949007;28;118579;-64
2023/12/03 01:10:00;;;;;;;14.87;8.07;;;-2.40;99.90;-2.80;100569.00;;;;4948321;28;113420;-64
2023/12/03 01:12:26;;;;;;;13.03;9.10;;;-2.40;99.90;-2.80;100564.00;;;;4959316;28;87852;-64
2023/12/03 01:14:54;;;;;;;14.70;9.10;;;-2.40;99.90;-2.80;100569.00;;;;4953917;28;117781;-64
2023/12/03 01:17:20;;;;;;;17.07;9.13;;;-2.30;99.90;-2.80;100580.00;;;;4955353;28;118128;-64
2023/12/03 01:19:46;;;;;;;14.03;9.10;;;-2.30;99.90;-2.80;100572.00;;;;4954173;28;87987;-64
2023/12/03 01:22:11;;;;;;;14.53;9.00;;;-2.30;99.90;-2.80;100574.00;;;;4953249;28;109381;-63
2023/12/03 01:24:37;;;;;;;19.50;8.93;;;-2.30;99.90;-2.90;100579.00;;;;4956240;28;87456;-63
2023/12/03 01:27:04;;;;;;;16.40;9.37;;;-2.20;99.90;-3.00;100586.00;;;;4953393;28;115046;-64
2023/12/03 01:29:30;;;;;;;11.57;7.70;;;-2.30;99.90;-3.00;100594.00;;;;4956783;28;87864;-63
2023/12/03 01:31:57;;;;;;;16.33;8.97;;;-2.50;99.90;-3.10;100593.00;;;;4951926;28;109793;-64
2023/12/03 01:34:23;;;;;;;18.20;9.87;;;-2.60;99.90;-3.20;100605.00;;;;4955915;28;90774;-63
2023/12/03 01:36:49;;;;;;;11.97;7.93;;;-2.70;99.90;-3.20;100610.00;;;;4950667;28;107825;-63
2023/12/03 01:39:15;;;;;;;13.03;9.00;;;-2.70;99.90;-3.20;100602.00;;;;4954281;28;108520;-63
2023/12/03 01:41:40;;;;;;;19.23;9.30;;;-2.70;99.90;-3.20;100612.00;;;;4953939;28;96491;-64
2023/12/03 01:44:06;;;;;;;15.33;8.80;;;-2.70;99.90;-3.20;100608.00;;;;4954347;28;117635;-64
2023/12/03 01:46:32;;;;;;;14.17;9.50;;;-2.80;99.90;-3.30;100612.00;;;;4953286;28;87846;-64
2023/12/03 01:48:58;;;;;;;15.00;8.93;;;-2.80;99.90;-3.30;100597.00;;;;4949403;28;110555;-64
2023/12/03 01:51:24;;;;;;;15.33;9.27;;;-2.80;99.90;-3.40;100603.00;;;;4968630;28;110628;-64
2023/12/03 01:53:51;;;;;;;15.00;9.17;;;-2.50;99.90;-3.40;100611.00;;;;4953430;28;117790;-65
2023/12/03 01:56:16;;;;;;;16.43;8.90;;;-2.90;99.90;-3.40;100604.00;;;;4951399;28;89069;-64
2023/12/03 01:58:42;;;;;;;19.83;9.63;;;-2.90;99.90;-3.40;100610.00;;;;4951376;28;88023;-65
2023/12/03 02:01:08;;;;;;;16.43;8.93;;;-2.90;99.90;-3.40;100616.00;;;;4947649;28;107823;-65
2023/12/03 02:03:34;;;;;;;19.07;10.40;;;-2.80;99.90;-3.30;100607.00;;;;4954364;28;88595;-65
2023/12/03 02:06:05;;;;;;;17.73;9.13;;;-2.80;99.90;-3.30;100610.00;;;;4948341;28;88737;-65
2023/12/03 02:08:32;;;;;;;19.90;11.60;;;-2.80;99.90;-3.30;100617.00;;;;4952651;28;87803;-66
2023/12/03 02:10:59;;;;;;;18.40;10.20;;;-2.00;99.90;-3.20;100616.00;;;;4955310;28;87888;-65
2023/12/03 02:13:28;;;;;;;17.80;10.07;;;-2.80;99.90;-3.20;100619.00;;;;4956621;28;87568;-64
2023/12/03 02:15:54;;;;;;;18.27;10.03;;;-2.80;99.90;-3.10;100612.00;;;;4954563;28;107007;-64
2023/12/03 02:18:20;;;;;;;16.27;11.13;;;-2.60;99.90;-3.00;100616.00;;;;4950405;28;88182;-65
2023/12/03 02:20:45;;;;;;;16.47;9.63;;;-2.50;99.90;-2.90;100618.00;;;;4951850;28;106500;-65
2023/12/03 02:23:11;;;;;;;18.13;10.33;;;-2.50;99.90;-2.80;100616.00;;;;4949897;28;92467;-64
2023/12/03 02:25:37;;;;;;;17.27;10.27;;;-2.30;99.90;-2.80;100626.00;;;;4953437;28;89090;-64
2023/12/03 02:28:03;;;;;;;21.10;11.43;;;-2.30;99.90;-2.70;100625.00;;;;4951746;28;87851;-65
2023/12/03 02:30:28;;;;;;;18.77;10.67;;;-1.90;99.90;-2.60;100634.00;;;;4951778;28;87599;-64
2023/12/03 02:32:54;;;;;;;16.40;9.63;;;-2.20;99.90;-2.60;100627.00;;;;4951330;28;118355;-65
2023/12/03 02:35:20;;;;;;;18.13;10.73;;;-2.30;99.90;-2.50;100625.00;;;;4953417;28;117422;-65
2023/12/03 02:37:49;;;;;;;19.00;10.90;;;-2.10;99.90;-2.50;100645.00;;;;4953791;28;87219;-64
2023/12/03 02:40:15;;;;;;;18.47;10.67;;;-2.10;99.90;-2.40;100641.00;;;;4952142;28;89085;-64
2023/12/03 02:42:40;;;;;;;19.13;10.00;;;-2.00;99.90;-2.40;100642.00;;;;4952843;28;88762;-65
2023/12/03 02:45:09;;;;;;;21.00;10.83;;;-2.00;99.90;-2.30;100647.00;;;;4946493;28;116698;-65
2023/12/03 02:47:34;;;;;;;18.53;10.53;;;-1.90;99.90;-2.30;100642.00;;;;4964877;28;105470;-64
2023/12/03 02:50:01;;;;;;;14.83;10.40;;;-1.90;99.90;-2.20;100651.00;;;;4949833;28;107295;-64
2023/12/03 02:52:27;;;;;;;25.17;11.23;;;-1.70;99.90;-2.20;100656.00;;;;4949662;28;88999;-65
2023/12/03 02:54:53;;;;;;;19.27;10.33;;;-1.70;99.90;-2.20;100651.00;;;;4950927;28;89073;-64
2023/12/03 02:57:19;;;;;;;27.33;11.97;;;-1.70;99.90;-2.10;100658.00;;;;4951945;28;87776;-65
2023/12/03 02:59:44;;;;;;;21.67;10.47;;;-1.70;99.90;-2.10;100648.00;;;;4952036;28;108258;-65
2023/12/03 03:02:10;;;;;;;17.33;10.67;;;-1.70;99.90;-2.10;100661.00;;;;4947586;28;117588;-65
2023/12/03 03:04:36;;;;;;;17.50;10.90;;;-1.70;99.90;-2.10;100668.00;;;;4952077;28;116183;-66
2023/12/03 03:07:01;;;;;;;25.03;11.27;;;-1.60;99.90;-2.00;100663.00;;;;4943910;28;111475;-64
2023/12/03 03:09:27;;;;;;;19.07;10.43;;;-1.60;99.90;-2.00;100660.00;;;;4948674;28;109232;-65
2023/12/03 03:11:54;;;;;;;21.73;11.33;;;-1.00;99.90;-2.00;100665.00;;;;4948172;28;117746;-65
2023/12/03 03:14:20;;;;;;;19.53;10.73;;;-1.50;99.90;-1.90;100666.00;;;;4949141;28;88010;-64
2023/12/03 03:16:49;;;;;;;21.13;10.40;;;-1.50;99.90;-1.90;100670.00;;;;4948524;28;111365;-65
2023/12/03 03:19:15;;;;;;;17.33;10.13;;;-1.50;99.90;-1.90;100666.00;;;;4949145;28;97754;-64
2023/12/03 03:21:41;;;;;;;17.53;10.93;;;-1.40;99.90;-1.90;100662.00;;;;4949918;28;89627;-65
2023/12/03 03:24:07;;;;;;;17.47;9.93;;;-1.40;99.90;-1.80;100672.00;;;;4948454;28;99306;-65
2023/12/03 03:26:33;;;;;;;17.40;11.10;;;-0.70;99.90;-1.80;100678.00;;;;4949803;28;88575;-66
2023/12/03 03:28:58;;;;;;;17.20;10.17;;;-1.40;99.90;-1.70;100674.00;;;;4949992;28;87942;-65
2023/12/03 03:31:24;;;;;;;16.43;10.13;;;-1.40;99.90;-1.70;100673.00;;;;4950739;28;112817;-64
2023/12/03 03:33:50;;;;;;;19.47;11.27;;;-1.40;99.90;-1.70;100674.00;;;;4948953;28;117302;-64
2023/12/03 03:36:16;;;;;;;20.80;10.47;;;-1.40;99.90;-1.70;100681.00;;;;4948591;28;87757;-66
2023/12/03 03:38:43;;;;;;;18.37;10.83;;;-1.30;99.90;-1.70;100688.00;;;;4949782;28;88171;-66
2023/12/03 03:41:10;;;;;;;17.57;9.63;;;-1.30;99.90;-1.70;100695.00;;;;4948998;28;117374;-66
2023/12/03 03:43:35;;;;;;;16.57;9.27;;;-1.90;99.90;-1.70;100696.00;;;;4949972;28;87912;-66
2023/12/03 03:46:01;;;;;;;15.17;9.43;;;-1.30;99.90;-1.70;100705.00;;;;4951374;28;104460;-65
2023/12/03 03:48:27;;;;;;;18.57;10.37;;;-1.30;99.90;-1.70;100694.00;;;;4947795;28;108899;-66
2023/12/03 03:50:53;;;;;;;19.37;10.67;;;-1.30;99.90;-1.60;100704.00;;;;4950996;28;90085;-65
2023/12/03 03:53:18;;;;;;;15.10;8.93;;;-1.20;99.90;-1.70;100698.00;;;;4947030;28;117999;-64
2023/12/03 03:55:44;;;;;;;13.10;9.57;;;-1.30;99.90;-1.70;100695.00;;;;4952313;28;114945;-65
2023/12/03 03:58:09;;;;;;;15.93;9.00;;;-1.20;99.90;-1.60;100694.00;;;;4949285;28;109106;-64
2023/12/03 04:00:35;;;;;;;19.40;11.03;;;-1.20;99.90;-1.60;100696.00;;;;4954443;28;118897;-66
2023/12/03 04:03:01;;;;;;;15.60;9.43;;;-1.20;99.90;-1.60;100695.00;;;;4953728;28;116498;-65
2023/12/03 04:05:26;;;;;;;18.73;9.63;;;-1.10;99.90;-1.60;100705.00;;;;4950457;28;113076;-65
2023/12/03 04:07:52;;;;;;;20.50;10.10;;;-1.20;99.90;-1.60;100701.00;;;;4950907;28;108056;-65
2023/12/03 04:10:18;;;;;;;15.87;9.67;;;-0.10;99.90;-1.60;100700.00;;;;4950122;28;117253;-64
2023/12/03 04:12:43;;;;;;;18.90;10.30;;;-1.20;99.90;-1.60;100711.00;;;;4951187;28;87974;-64
2023/12/03 04:15:10;;;;;;;15.03;9.30;;;-1.20;99.90;-1.60;100699.00;;;;4952273;28;88833;-65
2023/12/03 04:17:35;;;;;;;15.13;9.63;;;-1.20;99.90;-1.60;100706.00;;;;4951230;28;87661;-64
2023/12/03 04:20:01;;;;;;;16.20;9.70;;;-1.20;99.90;-1.60;100705.00;;;;4948748;28;110454;-64
2023/12/03 04:22:27;;;;;;;15.90;9.27;;;-1.20;99.90;-1.70;100709.00;;;;4949928;28;88863;-64
2023/12/03 04:24:53;;;;;;;13.77;8.97;;;-1.20;99.90;-1.70;100710.00;;;;4945066;28;110882;-64
2023/12/03 04:27:18;;;;;;;17.30;9.93;;;-1.30;99.90;-1.70;100712.00;;;;4946747;28;108872;-65
2023/12/03 04:29:44;;;;;;;17.03;9.53;;;-1.30;99.90;-1.70;100711.00;;;;4944808;28;88071;-64
2023/12/03 04:32:10;;;;;;;14.53;8.17;;;-1.30;99.90;-1.70;100710.00;;;;4950446;28;105231;-64
2023/12/03 04:34:38;;;;;;;21.03;10.50;;;-1.30;99.90;-1.70;100714.00;;;;4948207;28;110468;-65
2023/12/03 04:37:04;;;;;;;22.83;11.27;;;-1.30;99.90;-1.70;100713.00;;;;4949749;28;87867;-65
2023/12/03 04:39:29;;;;;;;18.17;9.70;;;-1.20;99.90;-1.70;100718.00;;;;4947624;28;115752;-65
2023/12/03 04:41:55;;;;;;;19.90;9.73;;;-1.30;99.90;-1.70;100718.00;;;;4953088;28;87945;-65
2023/12/03 04:44:21;;;;;;;13.83;9.23;;;-1.30;99.90;-1.70;100728.00;;;;4954274;28;110502;-65
2023/12/03 04:46:46;;;;;;;13.83;9.90;;;-1.30;99.90;-1.80;100723.00;;;;4952959;28;108339;-65
2023/12/03 04:49:12;;;;;;;16.97;9.80;;;-1.40;99.90;-1.70;100741.00;;;;4951252;28;98365;-65
2023/12/03 04:51:41;;;;;;;17.33;9.47;;;-1.30;99.90;-1.70;100728.00;;;;4950229;28;116604;-66
2023/12/03 04:54:06;;;;;;;17.47;10.03;;;-1.40;99.90;-1.70;100726.00;;;;4950214;28;108027;-65
2023/12/03 04:56:32;;;;;;;24.20;10.40;;;-1.30;99.90;-1.70;100732.00;;;;4953777;28;106683;-65
2023/12/03 04:58:58;;;;;;;16.53;10.13;;;-1.30;99.90;-1.70;100723.00;;;;4948667;28;116725;-66
2023/12/03 05:01:23;;;;;;;19.27;11.23;;;-1.20;99.90;-1.70;100732.00;;;;4945941;28;118476;-65
2023/12/03 05:03:49;;;;;;;16.23;9.40;;;-1.30;99.90;-1.70;100738.00;;;;4948199;28;86919;-65
2023/12/03 05:06:15;;;;;;;17.80;9.63;;;-1.40;99.90;-1.70;100744.00;;;;4949759;28;108921;-65
2023/12/03 05:08:40;;;;;;;20.33;11.00;;;-1.30;99.90;-1.60;100741.00;;;;4948735;28;88379;-65
2023/12/03 05:11:06;;;;;;;17.40;9.53;;;-1.20;99.90;-1.70;100743.00;;;;4953573;28;88787;-64
2023/12/03 05:13:33;;;;;;;17.73;11.47;;;0.00;99.90;-1.60;100746.00;;;;4953034;28;87896;-64
2023/12/03 05:16:02;;;;;;;19.27;10.60;;;-1.30;99.90;-1.60;100744.00;;;;4952352;28;87736;-64
2023/12/03 05:18:27;;;;;;;20.27;9.90;;;-1.20;99.90;-1.60;100749.00;;;;4953909;28;89038;-64
2023/12/03 05:20:53;;;;;;;22.97;11.33;;;-1.20;99.90;-1.60;100756.00;;;;4953034;28;117643;-65
2023/12/03 05:23:18;;;;;;;18.20;9.80;;;-1.20;99.90;-1.60;100752.00;;;;4951008;28;109062;-65
2023/12/03 05:25:46;;;;;;;16.47;9.83;;;-1.00;99.90;-1.60;100761.00;;;;4959491;28;106713;-65
2023/12/03 05:28:12;;;;;;;15.20;9.03;;;-1.30;99.90;-1.50;100757.00;;;;4955472;28;108824;-64
2023/12/03 05:30:38;;;;;;;18.43;9.87;;;-1.10;99.90;-1.50;100763.00;;;;4957373;28;117192;-65
2023/12/03 05:33:05;;;;;;;16.63;10.07;;;-1.10;99.90;-1.50;100748.00;;;;4951404;28;88026;-64
2023/12/03 05:35:31;;;;;;;20.07;10.10;;;-1.10;99.90;-1.50;100763.00;;;;4952537;28;88820;-64
2023/12/03 05:37:56;;;;;;;15.40;8.67;;;-1.10;99.90;-1.50;100759.00;;;;4948581;28;118752;-64
2023/12/03 05:40:22;;;;;;;14.10;9.93;;;-1.10;99.90;-1.50;100764.00;;;;4952760;28;88511;-64
2023/12/03 05:42:48;;;;;;;20.53;9.63;;;-1.00;99.90;-1.50;100776.00;;;;4956212;28;87961;-63
2023/12/03 05:45:13;;;;;;;14.63;9.73;;;-1.10;99.90;-1.50;100774.00;;;;4949401;28;108688;-64
2023/12/03 05:47:40;;;;;;;17.87;10.43;;;-1.10;99.90;-1.50;100775.00;;;;4956490;28;95997;-64
2023/12/03 05:50:06;;;;;;;18.30;11.43;;;-1.10;99.90;-1.50;100782.00;;;;4953136;28;87902;-65
2023/12/03 05:52:32;;;;;;;22.57;11.23;;;-1.10;99.90;-1.50;100777.00;;;;4955698;28;103256;-63
2023/12/03 05:54:58;;;;;;;14.43;10.47;;;-1.00;99.90;-1.60;100782.00;;;;4951549;28;109265;-64
2023/12/03 05:57:23;;;;;;;16.63;10.13;;;-1.20;99.90;-1.60;100791.00;;;;4950871;28;119098;-63
2023/12/03 05:59:50;;;;;;;20.77;10.07;;;-1.00;99.90;-1.60;100783.00;;;;4951168;28;117644;-63
2023/12/03 06:02:17;;;;;;;18.77;10.40;;;-1.10;99.90;-1.60;100787.00;;;;4956025;28;88084;-64
2023/12/03 06:04:42;;;;;;;17.70;8.67;;;-1.20;99.90;-1.60;100791.00;;;;4954236;28;98117;-63
2023/12/03 06:07:09;;;;;;;17.97;10.23;;;-1.20;99.90;-1.60;100793.00;;;;4951956;28;117559;-65
2023/12/03 06:09:34;;;;;;;21.67;11.33;;;-0.30;99.90;-1.60;100796.00;;;;4952352;28;89491;-65
2023/12/03 06:12:00;;;;;;;15.07;9.97;;;-1.20;99.90;-1.60;100797.00;;;;4947079;28;112640;-64
2023/12/03 06:14:26;;;;;;;16.77;9.97;;;-1.10;99.90;-1.60;100788.00;;;;4947521;28;109515;-65
2023/12/03 06:16:52;;;;;;;14.40;10.13;;;-1.20;99.90;-1.60;100791.00;;;;4949832;28;116124;-65
2023/12/03 06:19:18;;;;;;;18.93;9.80;;;-1.20;99.90;-1.60;100783.00;;;;4943561;28;116878;-65
2023/12/03 06:21:44;;;;;;;23.17;12.10;;;-1.10;99.90;-1.60;100789.00;;;;4944888;28;96700;-65
2023/12/03 06:24:09;;;;;;;20.53;11.17;;;-1.20;99.90;-1.60;100795.00;;;;4946505;28;89044;-65
2023/12/03 06:26:35;;;;;;;19.13;10.70;;;-1.20;99.90;-1.60;100797.00;;;;4948724;28;116559;-65
2023/12/03 06:29:01;;;;;;;17.80;11.13;;;-1.20;99.90;-1.60;100801.00;;;;4946656;28;118739;-65
2023/12/03 06:31:27;;;;;;;23.93;12.47;;;-1.20;99.90;-1.60;100810.00;;;;4953388;28;88161;-66
2023/12/03 06:33:53;;;;;;;16.50;10.50;;;-1.20;99.90;-1.60;100811.00;;;;4949980;28;95660;-65
2023/12/03 06:36:19;;;;;;;21.93;11.67;;;-1.30;99.90;-1.60;100807.00;;;;4947359;28;87894;-65
2023/12/03 06:38:44;;;;;;;21.77;11.17;;;-1.20;99.90;-1.60;100814.00;;;;4942674;28;118125;-65
2023/12/03 06:41:10;;;;;;;19.83;12.03;;;-1.20;99.90;-1.60;100808.00;;;;4945430;28;107008;-66
2023/12/03 06:43:36;;;;;;;21.50;11.50;;;-1.20;99.90;-1.60;100819.00;;;;4946908;28;109298;-65
2023/12/03 06:46:01;;;;;;;18.93;11.43;;;-1.20;99.90;-1.50;100812.00;;;;4947885;28;88093;-65
2023/12/03 06:48:27;;;;;;;18.60;11.17;;;-0.60;99.90;-1.50;100828.00;;;;4944462;28;89053;-65
2023/12/03 06:50:53;;;;;;;22.30;11.43;;;-1.10;99.90;-1.50;100835.00;;;;4943906;28;88047;-65
2023/12/03 06:53:19;;;;;;;16.70;10.37;;;-1.00;99.90;-1.50;100834.00;;;;4946946;28;88160;-66
2023/12/03 06:55:45;;;;;;;17.77;9.97;;;-1.10;99.90;-1.40;100847.00;;;;4950774;28;89765;-66
2023/12/03 06:58:17;;;;;;;23.07;12.30;;;-1.10;99.90;-1.40;100850.00;;;;4947954;28;88321;-65
2023/12/03 07:00:42;;;;;;;19.03;11.87;;;-1.00;99.90;-1.40;100860.00;;;;4943351;28;113657;-65
2023/12/03 07:03:08;;;;;;;16.27;10.50;;;-1.10;99.90;-1.40;100855.00;;;;4954292;28;109775;-65
2023/12/03 07:05:34;;;;;;;19.57;11.63;;;-1.00;99.90;-1.40;100855.00;;;;4944275;28;117052;-65
2023/12/03 07:07:59;;;;;;;17.80;10.60;;;-1.00;99.90;-1.40;100851.00;;;;4946505;28;92378;-65
2023/12/03 07:10:25;;;;;;;21.33;11.70;;;-1.00;99.90;-1.40;100855.00;;;;4944678;28;109245;-67
2023/12/03 07:12:51;;;;;;;17.70;11.27;;;-0.90;99.90;-1.30;100856.00;;;;4945373;28;110229;-64
2023/12/03 07:15:17;;;;;;;22.40;12.73;;;-1.00;99.90;-1.30;100869.00;;;;4945529;28;89012;-67
2023/12/03 07:17:42;;;;;;;18.90;10.63;;;-1.00;99.90;-1.30;100874.00;;;;4947808;28;89108;-66
2023/12/03 07:20:09;;;;;;;18.10;11.37;;;-0.90;99.90;-1.30;100869.00;;;;4946163;28;92785;-66
2023/12/03 07:22:34;;;;;;;22.37;12.07;;;-0.90;99.90;-1.20;100869.00;;;;4947816;28;87880;-65
2023/12/03 07:25:01;;;;;;;25.70;12.27;;;-0.90;99.90;-1.20;100878.00;;;;4948749;28;117391;-65
2023/12/03 07:27:28;;;;;;;23.53;11.60;;;-0.70;99.90;-1.20;100878.00;;;;4945440;28;87991;-64
2023/12/03 07:29:57;;;;;;;14.53;9.27;;;-0.80;99.90;-1.10;100880.00;;;;4942235;28;114131;-64
2023/12/03 07:32:23;;;;;;;18.27;10.30;;;-0.80;99.90;-1.10;100886.00;;;;4944290;28;108459;-67
2023/12/03 07:34:49;;;;;;;24.27;12.23;;;-0.70;99.90;-1.10;100885.00;;;;4947814;28;118535;-64
2023/12/03 07:37:15;;;;;;;16.83;9.93;;;-0.60;99.90;-1.10;100886.00;;;;4948521;28;115905;-65
2023/12/03 07:39:40;;;;;;;14.63;7.87;;;-0.70;99.90;-1.10;100882.00;;;;4951190;28;112057;-65
2023/12/03 07:42:07;;;;;;;19.83;10.47;;;-0.60;99.90;-1.00;100894.00;;;;4947159;28;108511;-64
2023/12/03 07:44:33;;;;;;;17.93;10.30;;;-0.60;99.90;-1.00;100884.00;;;;4946125;28;117179;-65
2023/12/03 07:46:58;;;;;;;19.87;10.13;;;-0.70;99.90;-1.00;100884.00;;;;4947683;28;90293;-64
2023/12/03 07:49:24;;;;;;;18.13;10.83;;;-0.60;99.90;-1.00;100893.00;;;;4945975;28;112704;-65
2023/12/03 07:51:50;;;;;;;17.83;9.77;;;-0.60;99.90;-0.90;100897.00;;;;4943531;28;108338;-65
2023/12/03 07:54:19;;;;;;;16.17;10.17;;;-0.50;99.90;-0.90;100893.00;;;;4946453;28;101419;-65
2023/12/03 07:56:44;;;;;;;19.27;9.80;;;-0.60;99.90;-0.90;100901.00;;;;4942299;28;88318;-65
2023/12/03 07:59:11;;;;;;;17.03;8.67;;;-0.70;99.90;-0.90;100900.00;;;;4944046;28;92816;-65
2023/12/03 08:01:37;;;;;;;13.27;9.10;;;-0.60;99.90;-0.90;100901.00;;;;4941773;28;89137;-65
2023/12/03 08:04:06;;;;;;;14.13;7.77;;;-0.50;99.90;-0.90;100895.00;;;;4944558;28;117908;-65
2023/12/03 08:06:32;;;;;;;15.67;9.10;;;-0.10;99.90;-0.90;100898.00;;;;4946255;28;87954;-64
2023/12/03 08:08:59;;;;;;;15.30;8.43;;;-0.60;99.90;-0.90;100898.00;;;;4944807;28;88096;-65
2023/12/03 08:11:28;;;;;;;13.33;8.63;;;-0.60;99.90;-0.90;100894.00;;;;4943291;28;87876;-65
2023/12/03 08:13:54;;;;;;;16.17;8.43;;;-0.60;99.90;-0.90;100896.00;;;;4947784;28;88444;-64
2023/12/03 08:16:19;;;;;;;15.03;8.70;;;-0.60;99.90;-0.90;100898.00;;;;4948861;28;89137;-67
2023/12/03 08:18:45;;;;;;;12.83;8.43;;;-0.60;99.90;-0.90;100904.00;;;;4945481;28;97051;-64
2023/12/03 08:21:11;;;;;;;11.93;6.30;;;-0.50;99.90;-0.90;100908.00;;;;4947645;28;87888;-65
2023/12/03 08:23:36;;;;;;;13.07;8.23;;;-0.50;99.90;-0.90;100896.00;;;;4944708;28;101511;-65
2023/12/03 08:26:04;;;;;;;10.27;6.97;;;-0.40;99.90;-0.90;100901.00;;;;4945806;28;116966;-64
2023/12/03 08:28:36;;;;;;;14.87;9.37;;;-0.60;99.90;-0.90;100915.00;;;;4943578;28;88068;-65
2023/12/03 08:31:02;;;;;;;12.23;7.57;;;-0.50;99.90;-0.80;100903.00;;;;4948364;28;108566;-66
2023/12/03 08:33:27;;;;;;;12.33;7.67;;;-0.50;99.90;-0.80;100913.00;;;;4951237;28;89100;-66
2023/12/03 08:35:53;;;;;;;10.10;7.83;;;-0.40;99.90;-0.70;100919.00;;;;4953122;28;88932;-66
2023/12/03 08:38:19;;;;;;;18.23;9.30;;;-0.40;99.90;-0.70;100911.00;;;;4949217;28;111263;-66
2023/12/03 08:40:44;;;;;;;14.17;8.30;;;-0.30;99.90;-0.60;100915.00;;;;4945602;28;87812;-66
2023/12/03 08:43:10;;;;;;;20.20;9.37;;;-0.40;99.90;-0.60;100921.00;;;;4944614;28;116695;-66
2023/12/03 08:45:36;;;;;;;17.10;9.77;;;-0.20;99.90;-0.50;100918.00;;;;4945651;28;116323;-65
2023/12/03 08:48:01;;;;;;;14.67;9.33;;;-0.20;99.90;-0.50;100920.00;;;;4941263;28;110782;-66
2023/12/03 08:50:29;;;;;;;20.83;11.00;;;0.00;99.90;-0.40;100921.00;;;;4951394;28;88650;-66
2023/12/03 08:52:56;;;;;;;19.30;10.77;;;-0.10;99.90;-0.40;100920.00;;;;4950341;28;88204;-66
2023/12/03 08:55:21;;;;;;;13.83;9.40;;;0.00;99.90;-0.40;100925.00;;;;4954724;28;108916;-65
2023/12/03 08:57:48;;;;;;;13.10;8.97;;;-0.10;99.90;-0.30;100918.00;;;;4950737;28;112159;-65
2023/12/03 09:00:15;;;;;;;15.20;8.37;;;-0.10;99.90;-0.40;100918.00;;;;4952741;28;87986;-66
2023/12/03 09:02:47;;;;;;;15.60;9.17;;;0.10;99.90;-0.40;100918.00;;;;4953139;28;89066;-65
2023/12/03 09:05:13;;;;;;;13.67;7.93;;;0.00;99.90;-0.30;100920.00;;;;4951544;28;88756;-65
2023/12/03 09:07:39;;;;;;;19.77;11.20;;;0.00;99.90;-0.30;100927.00;;;;4952993;28;87047;-65
2023/12/03 09:10:06;;;;;;;13.40;8.20;;;0.10;99.90;-0.30;100929.00;;;;4947454;28;87926;-65
2023/12/03 09:12:32;;;;;;;14.50;8.67;;;0.10;99.90;-0.30;100930.00;;;;4949319;28;88578;-66
2023/12/03 09:14:58;;;;;;;17.87;9.90;;;0.00;99.90;-0.30;100938.00;;;;4946283;28;118138;-66
2023/12/03 09:17:23;;;;;;;24.47;9.70;;;0.00;99.90;-0.30;100938.00;;;;4946866;28;88373;-66
2023/12/03 09:19:49;;;;;;;16.03;10.20;;;0.10;99.90;-0.30;100944.00;;;;4949475;28;106941;-67
2023/12/03 09:22:15;;;;;;;13.47;9.10;;;0.00;99.90;-0.30;100946.00;;;;4950539;28;117507;-66
2023/12/03 09:24:41;;;;;;;13.43;8.03;;;0.20;99.90;-0.30;100950.00;;;;4951054;28;105510;-66
2023/12/03 09:27:07;;;;;;;16.93;9.00;;;0.10;99.90;-0.20;100934.00;;;;4950876;28;88005;-66
2023/12/03 09:29:33;;;;;;;17.93;8.73;;;0.20;99.90;-0.20;100946.00;;;;4951142;28;87816;-67
2023/12/03 09:31:58;;;;;;;14.00;9.10;;;0.20;99.90;-0.20;100943.00;;;;4948185;28;87392;-67
2023/12/03 09:34:24;;;;;;;17.40;10.23;;;0.10;99.90;-0.30;100949.00;;;;4951678;28;117398;-68
2023/12/03 09:36:50;;;;;;;14.20;8.67;;;0.10;99.90;-0.30;100951.00;;;;4948023;28;110662;-66
2023/12/03 09:39:16;;;;;;;17.53;8.87;;;0.10;99.90;-0.30;100946.00;;;;4949541;28;109121;-66
2023/12/03 09:41:48;;;;;;;11.67;7.40;;;0.00;99.90;-0.40;100945.00;;;;4947172;28;89100;-67
2023/12/03 09:44:26;;;;;;;13.07;8.43;;;-0.10;99.90;-0.40;100950.00;;;;4952825;28;109751;-68
2023/12/03 09:46:54;;;;;;;14.33;9.10;;;-0.10;99.90;-0.40;100947.00;;;;4955045;28;87876;-68
2023/12/03 09:49:25;;;;;;;15.03;9.23;;;0.60;99.90;-0.50;100944.00;;;;4950710;28;87878;-68
2023/12/03 09:52:00;;;;;;;13.07;8.37;;;-0.10;99.90;-0.50;100951.00;;;;4952375;28;90628;-67
2023/12/03 09:54:26;;;;;;;17.13;8.90;;;-0.10;99.90;-0.60;100954.00;;;;4952796;28;88424;-67
2023/12/03 09:56:56;;;;;;;11.37;8.83;;;-0.20;99.90;-0.60;100943.00;;;;4951539;28;86915;-68
2023/12/03 09:59:22;;;;;;;13.63;9.83;;;-0.20;99.90;-0.60;100952.00;;;;4949268;28;87630;-68
2023/12/03 10:01:48;;;;;;;17.00;9.40;;;-0.30;99.90;-0.60;100954.00;;;;4944451;28;118545;-66
2023/12/03 10:04:14;;;;;;;18.23;8.87;;;-0.20;99.90;-0.60;100941.00;;;;4949361;28;117525;-67
2023/12/03 10:06:46;;;;;;;18.43;9.73;;;0.40;99.90;-0.60;100947.00;;;;4946941;28;110448;-68
2023/12/03 10:09:13;;;;;;;13.73;9.73;;;-0.20;99.90;-0.60;100952.00;;;;4947110;28;88057;-67
2023/12/03 10:11:40;;;;;;;14.57;9.17;;;-0.20;99.90;-0.60;100949.00;;;;4952297;28;88853;-67
2023/12/03 10:14:10;;;;;;;15.73;9.20;;;-0.20;99.90;-0.60;100951.00;;;;4953997;28;88292;-68
2023/12/03 10:16:37;;;;;;;19.53;9.17;;;-0.20;99.90;-0.50;100956.00;;;;4945806;28;87948;-68
2023/12/03 10:19:03;;;;;;;15.97;8.47;;;-0.30;99.90;-0.50;100952.00;;;;4946586;28;88264;-66
2023/12/03 10:21:28;;;;;;;16.60;9.20;;;-0.20;99.90;-0.50;100954.00;;;;4947182;28;118127;-67
2023/12/03 10:24:03;;;;;;;12.73;7.10;;;-0.20;99.90;-0.50;100967.00;;;;4955125;28;116058;-70
2023/12/03 10:26:30;;;;;;;17.13;7.87;;;-0.20;99.90;-0.50;100953.00;;;;4934850;28;88713;-68
2023/12/03 10:28:56;;;;;;;16.10;10.27;;;0.70;99.90;-0.50;100968.00;;;;4952817;28;108342;-68
2023/12/03 10:31:22;;;;;;;15.33;9.33;;;-0.10;99.90;-0.50;100959.00;;;;4951429;28;112723;-67